createdAt,value
2022-11-30T01:25:25.619Z,133.00
2022-11-30T01:26:25.563Z,134.80
2022-11-30T01:27:25.579Z,97.90
2022-11-30T01:28:25.536Z,111.40
2022-11-30T01:29:25.555Z,120.30
2022-11-30T01:30:25.518Z,115.30
2022-11-30T01:31:25.537Z,92.70
2022-11-30T01:32:25.489Z,98.40
2022-11-30T01:33:25.555Z,84.80
2022-11-30T01:34:25.494Z,97.50
2022-11-30T01:35:25.456Z,88.30
2022-11-30T01:36:25.454Z,92.60
2022-11-30T01:37:25.464Z,110.70
2022-11-30T01:38:25.439Z,95.60
2022-11-30T01:39:25.449Z,89.20
2022-11-30T01:40:25.409Z,87.40
2022-11-30T01:41:25.405Z,81.60
2022-11-30T01:42:25.424Z,83.70
2022-11-30T01:43:25.384Z,92.50
2022-11-30T01:44:25.346Z,88.70
2022-11-30T01:45:25.432Z,82.70
2022-11-30T01:46:25.373Z,82.60
2022-11-30T01:47:25.350Z,79.80
2022-11-30T01:48:25.359Z,85.40
2022-11-30T01:49:25.309Z,73.90
2022-11-30T01:50:25.263Z,80.50
2022-11-30T01:51:25.285Z,85.60
2022-11-30T01:52:25.263Z,80.90
2022-11-30T01:53:25.283Z,76.60
2022-11-30T01:54:25.240Z,71.40
2022-11-30T01:55:25.241Z,72.20
2022-11-30T01:56:25.225Z,77.00
2022-11-30T01:57:25.210Z,78.10
2022-11-30T01:58:25.161Z,77.90
2022-11-30T01:59:25.161Z,84.10
2022-11-30T02:00:25.167Z,83.70
2022-11-30T02:01:25.161Z,78.20
2022-11-30T02:02:25.195Z,78.90
2022-11-30T02:03:25.107Z,86.10
2022-11-30T02:04:25.119Z,92.80
2022-11-30T02:05:25.103Z,91.50
2022-11-30T02:06:25.098Z,90.10
2022-11-30T02:07:25.163Z,81.80
2022-11-30T02:08:25.137Z,84.40
2022-11-30T02:09:25.040Z,96.60
2022-11-30T02:10:25.035Z,87.20
2022-11-30T02:11:25.044Z,80.00
2022-11-30T02:12:25.037Z,85.60
2022-11-30T02:13:24.981Z,85.80
2022-11-30T02:14:25.021Z,90.50
2022-11-30T02:15:25.053Z,85.80
2022-11-30T02:16:24.983Z,75.60
2022-11-30T02:17:24.949Z,82.60
2022-11-30T02:18:24.939Z,101.50
2022-11-30T02:19:24.944Z,100.30
2022-11-30T02:20:24.912Z,74.80
2022-11-30T02:21:24.886Z,71.90
2022-11-30T02:22:24.923Z,70.50
2022-11-30T02:23:24.868Z,68.40
2022-11-30T02:24:24.874Z,58.30
2022-11-30T02:25:24.867Z,67.30
2022-11-30T02:26:24.839Z,64.70
2022-11-30T02:27:24.818Z,59.90
2022-11-30T02:28:24.856Z,61.60
2022-11-30T02:29:24.805Z,56.10
2022-11-30T02:30:24.824Z,57.60
2022-11-30T02:31:24.805Z,56.00
2022-11-30T02:32:24.760Z,55.90
2022-11-30T02:33:24.767Z,55.30
2022-11-30T02:34:24.740Z,52.80
2022-11-30T02:35:24.738Z,63.20
2022-11-30T02:36:24.732Z,54.20
2022-11-30T02:37:24.691Z,54.90
2022-11-30T02:38:24.684Z,57.10
2022-11-30T02:39:24.657Z,52.20
2022-11-30T02:40:24.684Z,53.20
2022-11-30T02:41:24.675Z,48.40
2022-11-30T02:42:24.619Z,53.20
2022-11-30T02:43:24.632Z,50.90
2022-11-30T02:44:24.589Z,52.50
2022-11-30T02:45:24.606Z,50.50
2022-11-30T02:46:24.646Z,51.00
2022-11-30T02:47:24.557Z,53.10
2022-11-30T02:48:24.557Z,51.30
2022-11-30T02:49:24.527Z,50.30
2022-11-30T02:50:24.556Z,49.50
2022-11-30T02:51:24.567Z,51.30
2022-11-30T02:52:24.529Z,48.60
2022-11-30T02:53:24.501Z,53.10
2022-11-30T02:54:24.491Z,50.00
2022-11-30T02:55:24.459Z,51.90
2022-11-30T02:56:24.468Z,50.60
2022-11-30T02:57:24.469Z,49.80
2022-11-30T02:58:24.421Z,60.80
2022-11-30T02:59:24.410Z,57.20
2022-11-30T03:00:24.404Z,52.40
2022-11-30T03:01:24.436Z,55.40
2022-11-30T03:02:24.445Z,54.90
2022-11-30T03:03:24.412Z,54.20
2022-11-30T03:04:24.358Z,53.30
2022-11-30T03:05:24.346Z,53.80
2022-11-30T03:06:24.335Z,52.90
2022-11-30T03:07:24.388Z,58.70
2022-11-30T03:08:24.321Z,55.00
2022-11-30T03:09:24.313Z,60.80
2022-11-30T03:10:24.294Z,63.70
2022-11-30T03:11:24.247Z,66.00
2022-11-30T03:12:24.260Z,69.50
2022-11-30T03:13:24.291Z,62.40
2022-11-30T03:14:24.233Z,59.30
2022-11-30T03:15:24.224Z,65.90
2022-11-30T03:16:24.267Z,62.20
2022-11-30T03:17:24.225Z,64.60
2022-11-30T03:18:24.190Z,75.70
2022-11-30T03:19:24.166Z,68.10
2022-11-30T03:20:24.157Z,68.00
2022-11-30T03:21:24.141Z,64.80
2022-11-30T03:22:35.986Z,68.70
2022-11-30T03:23:24.538Z,65.00
2022-11-30T03:25:31.647Z,71.70
2022-11-30T03:26:24.130Z,75.60
2022-11-30T03:27:24.079Z,69.40
2022-11-30T03:28:24.130Z,70.20
2022-11-30T03:29:24.061Z,67.00
2022-11-30T03:30:24.027Z,63.70
2022-11-30T03:31:24.117Z,66.50
2022-11-30T03:32:23.991Z,64.40
2022-11-30T03:33:23.996Z,71.20
2022-11-30T03:34:24.023Z,69.60
2022-11-30T03:35:24.020Z,72.40
2022-11-30T03:36:23.957Z,82.30
2022-11-30T03:37:23.989Z,102.90
2022-11-30T03:38:23.928Z,76.50
2022-11-30T03:39:23.899Z,70.30
2022-11-30T03:40:23.888Z,72.90
2022-11-30T03:41:23.891Z,85.70
2022-11-30T03:42:23.886Z,69.30
2022-11-30T03:43:23.904Z,69.60
2022-11-30T03:44:23.828Z,71.20
2022-11-30T03:45:23.833Z,71.40
2022-11-30T03:46:23.877Z,79.10
2022-11-30T03:47:23.829Z,73.70
2022-11-30T03:48:23.836Z,78.10
2022-11-30T03:49:23.803Z,73.10
2022-11-30T03:50:23.778Z,63.40
2022-11-30T03:51:23.747Z,65.80
2022-11-30T03:52:23.757Z,69.70
2022-11-30T03:53:23.727Z,66.50
2022-11-30T03:54:23.734Z,65.70
2022-11-30T03:55:23.741Z,68.50
2022-11-30T03:56:23.703Z,73.30
2022-11-30T03:57:23.716Z,69.00
2022-11-30T03:58:23.676Z,79.20
2022-11-30T03:59:23.652Z,70.20
2022-11-30T04:00:23.718Z,67.10
2022-11-30T04:01:23.773Z,66.00
2022-11-30T04:02:23.679Z,65.10
2022-11-30T04:03:23.653Z,71.10
2022-11-30T04:04:23.611Z,67.90
2022-11-30T04:05:23.570Z,66.10
2022-11-30T04:06:23.584Z,68.00
2022-11-30T04:07:23.621Z,63.70
2022-11-30T04:08:23.557Z,67.10
2022-11-30T04:09:23.550Z,68.90
2022-11-30T04:10:23.514Z,89.20
2022-11-30T04:11:23.499Z,63.40
2022-11-30T04:12:23.480Z,91.80
2022-11-30T04:13:23.474Z,65.40
2022-11-30T04:14:23.498Z,67.50
2022-11-30T04:15:23.432Z,63.30
2022-11-30T04:16:23.476Z,56.90
2022-11-30T04:17:23.446Z,62.20
2022-11-30T04:18:23.409Z,62.00
2022-11-30T04:19:23.441Z,60.90
2022-11-30T04:20:23.395Z,55.40
2022-11-30T04:21:23.390Z,54.10
2022-11-30T04:22:23.368Z,64.20
2022-11-30T04:23:23.390Z,52.50
2022-11-30T04:24:23.357Z,52.50
2022-11-30T04:25:23.317Z,53.00
2022-11-30T04:26:23.336Z,49.90
2022-11-30T04:27:23.341Z,51.70
2022-11-30T04:28:23.305Z,53.00
2022-11-30T04:29:23.278Z,59.10
2022-11-30T04:30:23.255Z,52.10
2022-11-30T04:31:23.266Z,53.20
2022-11-30T04:32:23.260Z,50.00
2022-11-30T04:33:23.239Z,49.90
2022-11-30T04:34:23.227Z,46.90
2022-11-30T04:35:23.197Z,48.50
2022-11-30T04:36:23.188Z,45.80
2022-11-30T04:37:23.188Z,45.10
2022-11-30T04:38:23.164Z,48.10
2022-11-30T04:39:23.203Z,49.90
2022-11-30T04:40:23.152Z,49.50
2022-11-30T04:41:23.119Z,47.10
2022-11-30T04:42:23.104Z,49.50
2022-11-30T04:43:23.119Z,45.90
2022-11-30T04:44:23.071Z,44.40
2022-11-30T04:45:23.064Z,41.90
2022-11-30T04:46:23.062Z,48.00
2022-11-30T04:47:23.993Z,51.30
2022-11-30T04:48:23.053Z,50.90
2022-11-30T04:49:23.030Z,68.40
2022-11-30T04:50:23.008Z,48.70
2022-11-30T04:51:22.969Z,70.00
2022-11-30T04:52:22.964Z,59.70
2022-11-30T04:53:22.971Z,52.30
2022-11-30T04:54:22.981Z,48.20
2022-11-30T04:55:22.934Z,53.00
2022-11-30T04:56:22.901Z,50.10
2022-11-30T04:57:22.910Z,42.10
2022-11-30T04:58:22.903Z,43.90
2022-11-30T04:59:22.885Z,46.60
2022-11-30T05:00:22.885Z,47.80
2022-11-30T05:01:22.935Z,48.10
2022-11-30T05:02:22.872Z,52.10
2022-11-30T05:03:22.829Z,45.90
2022-11-30T05:04:22.937Z,48.50
2022-11-30T05:05:22.795Z,48.90
2022-11-30T05:06:22.817Z,54.30
2022-11-30T05:07:22.832Z,47.70
2022-11-30T05:08:22.782Z,77.10
2022-11-30T05:09:22.777Z,50.70
2022-11-30T05:10:22.747Z,51.00
2022-11-30T05:11:22.754Z,55.20
2022-11-30T05:12:22.729Z,63.80
2022-11-30T05:13:22.703Z,46.50
2022-11-30T05:14:22.691Z,44.80
2022-11-30T05:15:22.664Z,47.60
2022-11-30T05:16:22.709Z,48.50
2022-11-30T05:17:31.351Z,45.70
2022-11-30T05:18:22.654Z,50.10
2022-11-30T05:19:22.655Z,44.50
2022-11-30T05:20:22.626Z,60.80
2022-11-30T05:21:22.616Z,49.80
2022-11-30T05:22:22.607Z,54.20
2022-11-30T05:23:22.624Z,54.10
2022-11-30T05:24:22.580Z,54.90
2022-11-30T05:25:22.549Z,44.50
2022-11-30T05:26:22.594Z,47.10
2022-11-30T05:27:22.980Z,54.60
2022-11-30T05:28:22.569Z,47.20
2022-11-30T05:29:22.512Z,52.00
2022-11-30T05:30:22.497Z,49.30
2022-11-30T05:31:22.522Z,64.60
2022-11-30T05:32:22.471Z,46.30
2022-11-30T05:33:22.457Z,48.80
2022-11-30T05:34:22.430Z,50.20
2022-11-30T05:35:22.455Z,52.30
2022-11-30T05:36:22.433Z,48.60
2022-11-30T05:37:22.406Z,59.80
2022-11-30T05:38:22.407Z,50.90
2022-11-30T05:39:22.371Z,47.80
2022-11-30T05:40:22.377Z,48.00
2022-11-30T05:41:22.361Z,41.00
2022-11-30T05:42:22.344Z,43.40
2022-11-30T05:43:22.322Z,43.40
2022-11-30T05:44:22.315Z,40.70
2022-11-30T05:45:22.330Z,41.60
2022-11-30T05:46:22.342Z,43.40
2022-11-30T05:47:22.278Z,41.70
2022-11-30T05:48:22.281Z,42.10
2022-11-30T05:49:22.247Z,45.30
2022-11-30T05:50:22.227Z,41.40
2022-11-30T05:51:22.273Z,47.10
2022-11-30T05:52:22.244Z,41.10
2022-11-30T05:53:22.190Z,59.30
2022-11-30T05:54:22.203Z,68.20
2022-11-30T05:55:22.178Z,63.60
2022-11-30T05:56:22.187Z,61.70
2022-11-30T05:57:22.172Z,49.50
2022-11-30T05:58:22.131Z,45.70
2022-11-30T05:59:22.127Z,43.50
2022-11-30T06:00:22.126Z,51.20
2022-11-30T06:01:22.108Z,49.90
2022-11-30T06:02:26.695Z,43.90
2022-11-30T06:03:23.158Z,42.70
2022-11-30T06:04:22.041Z,42.70
2022-11-30T06:05:22.049Z,42.90
2022-11-30T06:06:22.033Z,40.90
2022-11-30T06:07:22.074Z,45.30
2022-11-30T06:08:21.990Z,48.90
2022-11-30T06:09:22.022Z,41.90
2022-11-30T06:10:21.979Z,46.50
2022-11-30T06:11:21.990Z,42.00
2022-11-30T06:12:21.933Z,50.20
2022-11-30T06:13:27.427Z,48.70
2022-11-30T06:14:22.948Z,40.30
2022-11-30T06:15:22.076Z,44.10
2022-11-30T06:16:21.926Z,40.50
2022-11-30T06:17:21.999Z,38.30
2022-11-30T06:18:21.882Z,39.70
2022-11-30T06:19:21.865Z,40.70
2022-11-30T06:20:21.880Z,40.50
2022-11-30T06:21:24.618Z,41.70
2022-11-30T06:22:21.821Z,45.20
2022-11-30T06:23:21.804Z,41.80
2022-11-30T06:24:21.783Z,43.50
2022-11-30T06:25:21.819Z,40.70
2022-11-30T06:26:21.788Z,39.40
2022-11-30T06:27:21.744Z,41.10
2022-11-30T06:28:21.771Z,37.90
2022-11-30T06:29:21.772Z,39.00
2022-11-30T06:30:21.736Z,40.90
2022-11-30T06:31:21.802Z,39.70
2022-11-30T06:32:22.017Z,42.10
2022-11-30T06:33:21.668Z,43.50
2022-11-30T06:34:21.841Z,37.10
2022-11-30T06:35:21.661Z,39.40
2022-11-30T06:36:21.647Z,39.00
2022-11-30T06:37:21.645Z,37.30
2022-11-30T06:38:21.611Z,41.50
2022-11-30T06:39:43.057Z,41.50
2022-11-30T06:40:22.575Z,44.70
2022-11-30T06:41:21.574Z,44.20
2022-11-30T06:42:21.579Z,38.90
2022-11-30T06:43:21.574Z,42.30
2022-11-30T06:44:21.532Z,40.20
2022-11-30T06:45:21.527Z,37.20
2022-11-30T06:46:21.500Z,43.00
2022-11-30T06:47:21.532Z,44.00
2022-11-30T06:48:21.483Z,41.80
2022-11-30T06:49:21.489Z,38.70
2022-11-30T06:50:21.456Z,41.50
2022-11-30T06:51:21.453Z,45.40
2022-11-30T06:52:21.464Z,42.90
2022-11-30T06:53:21.443Z,43.60
2022-11-30T06:54:21.413Z,41.20
2022-11-30T06:55:21.394Z,42.10
2022-11-30T06:56:21.379Z,43.70
2022-11-30T06:57:21.368Z,38.90
2022-11-30T06:58:21.353Z,41.20
2022-11-30T06:59:21.361Z,42.80
2022-11-30T07:00:21.342Z,45.80
2022-11-30T07:01:21.394Z,43.80
2022-11-30T07:02:21.332Z,42.40
2022-11-30T07:03:21.304Z,42.00
2022-11-30T07:04:21.312Z,41.90
2022-11-30T07:05:21.281Z,46.20
2022-11-30T07:06:21.260Z,45.20
2022-11-30T07:07:21.318Z,43.40
2022-11-30T07:08:21.243Z,44.70
2022-11-30T07:09:21.252Z,41.60
2022-11-30T07:10:21.226Z,43.30
2022-11-30T07:11:21.192Z,38.70
2022-11-30T07:12:21.191Z,40.10
2022-11-30T07:13:21.199Z,38.60
2022-11-30T07:14:21.153Z,39.80
2022-11-30T07:15:21.138Z,40.90
2022-11-30T07:16:21.194Z,43.90
2022-11-30T07:17:21.121Z,37.70
2022-11-30T07:18:21.115Z,44.50
2022-11-30T07:19:21.079Z,42.40
2022-11-30T07:20:21.070Z,40.30
2022-11-30T07:21:21.063Z,39.50
2022-11-30T07:22:21.044Z,39.40
2022-11-30T07:23:21.052Z,41.50
2022-11-30T07:24:21.027Z,42.90
2022-11-30T07:25:21.017Z,37.40
2022-11-30T07:26:21.001Z,39.90
2022-11-30T07:27:21.012Z,39.70
2022-11-30T07:28:20.973Z,41.70
2022-11-30T07:29:20.969Z,40.00
2022-11-30T07:30:20.938Z,42.50
2022-11-30T07:31:20.970Z,37.70
2022-11-30T07:32:20.941Z,40.00
2022-11-30T07:33:20.912Z,41.40
2022-11-30T07:34:20.959Z,38.20
2022-11-30T07:35:20.871Z,39.00
2022-11-30T07:36:20.859Z,38.90
2022-11-30T07:37:20.856Z,38.50
2022-11-30T07:38:20.837Z,42.90
2022-11-30T07:39:20.825Z,42.30
2022-11-30T07:40:20.993Z,36.40
2022-11-30T07:41:20.799Z,40.10
2022-11-30T07:42:20.796Z,40.40
2022-11-30T07:43:20.805Z,38.40
2022-11-30T07:44:20.803Z,37.70
2022-11-30T07:45:20.743Z,39.00
2022-11-30T07:46:20.803Z,37.30
2022-11-30T07:47:20.728Z,36.20
2022-11-30T07:48:20.711Z,39.50
2022-11-30T07:49:20.695Z,39.20
2022-11-30T07:50:20.690Z,39.30
2022-11-30T07:51:20.693Z,39.60
2022-11-30T07:52:20.681Z,43.10
2022-11-30T07:53:20.680Z,41.10
2022-11-30T07:54:20.645Z,44.20
2022-11-30T07:55:20.636Z,43.30
2022-11-30T07:56:20.630Z,40.50
2022-11-30T07:57:20.610Z,38.90
2022-11-30T07:58:20.608Z,41.60
2022-11-30T07:59:20.576Z,41.00
2022-11-30T08:00:20.548Z,40.30
2022-11-30T08:01:20.667Z,44.90
2022-11-30T08:02:20.740Z,37.70
2022-11-30T08:03:20.584Z,41.40
2022-11-30T08:04:20.524Z,38.20
2022-11-30T08:05:20.500Z,43.10
2022-11-30T08:06:20.483Z,44.50
2022-11-30T08:07:20.485Z,41.20
2022-11-30T08:08:20.469Z,41.10
2022-11-30T08:09:20.966Z,40.10
2022-11-30T08:10:20.436Z,43.90
2022-11-30T08:11:20.415Z,41.00
2022-11-30T08:12:20.402Z,40.10
2022-11-30T08:13:20.414Z,43.30
2022-11-30T08:14:20.385Z,40.30
2022-11-30T08:15:21.489Z,38.60
2022-11-30T08:16:20.461Z,40.50
2022-11-30T08:17:20.345Z,41.40
2022-11-30T08:18:20.328Z,45.70
2022-11-30T08:19:20.315Z,41.30
2022-11-30T08:20:20.332Z,38.00
2022-11-30T08:21:20.307Z,42.90
2022-11-30T08:22:20.275Z,43.00
2022-11-30T08:23:20.289Z,44.30
2022-11-30T08:24:20.354Z,43.70
2022-11-30T08:25:20.247Z,38.40
2022-11-30T08:26:20.225Z,37.40
2022-11-30T08:27:20.217Z,40.50
2022-11-30T08:28:20.200Z,40.40
2022-11-30T08:29:20.216Z,41.30
2022-11-30T08:30:20.301Z,38.30
2022-11-30T08:31:20.312Z,41.40
2022-11-30T08:32:20.152Z,40.80
2022-11-30T08:33:20.229Z,41.00
2022-11-30T08:34:20.235Z,41.70
2022-11-30T08:35:20.166Z,40.10
2022-11-30T08:36:20.276Z,41.40
2022-11-30T08:37:20.223Z,41.90
2022-11-30T08:38:20.120Z,40.90
2022-11-30T08:39:20.096Z,38.20
2022-11-30T08:40:20.109Z,39.80
2022-11-30T08:41:20.069Z,41.40
2022-11-30T08:42:20.125Z,41.10
2022-11-30T08:43:20.049Z,35.90
2022-11-30T08:44:20.031Z,37.30
2022-11-30T08:45:20.233Z,44.40
2022-11-30T08:47:21.371Z,42.40
2022-11-30T08:48:20.041Z,44.50
2022-11-30T08:49:21.962Z,42.00
2022-11-30T08:50:20.045Z,42.50
2022-11-30T08:51:20.038Z,38.50
2022-11-30T08:52:20.113Z,42.60
2022-11-30T08:53:19.978Z,41.60
2022-11-30T08:54:19.982Z,42.10
2022-11-30T08:55:20.040Z,39.30
2022-11-30T08:56:19.936Z,39.30
2022-11-30T08:57:19.922Z,40.10
2022-11-30T08:58:20.160Z,42.10
2022-11-30T08:59:19.950Z,43.10
2022-11-30T09:00:19.849Z,41.20
2022-11-30T09:01:19.896Z,38.60
2022-11-30T09:02:20.075Z,39.80
2022-11-30T09:03:19.850Z,42.20
2022-11-30T09:04:19.923Z,40.10
2022-11-30T09:05:19.930Z,40.80
2022-11-30T09:06:19.788Z,42.20
2022-11-30T09:07:20.203Z,42.90
2022-11-30T09:08:19.772Z,39.00
2022-11-30T09:09:19.785Z,44.50
2022-11-30T09:10:19.722Z,40.80
2022-11-30T09:11:20.080Z,39.80
2022-11-30T09:12:19.756Z,40.30
2022-11-30T09:13:19.794Z,41.10
2022-11-30T09:14:19.691Z,41.90
2022-11-30T09:15:19.614Z,42.30
2022-11-30T09:16:19.697Z,39.50
2022-11-30T09:17:19.741Z,41.40
2022-11-30T09:18:20.039Z,42.10
2022-11-30T09:19:19.598Z,40.10
2022-11-30T09:20:19.624Z,39.40
2022-11-30T09:21:19.879Z,41.20
2022-11-30T09:22:19.663Z,40.70
2022-11-30T09:23:19.580Z,43.00
2022-11-30T09:24:19.613Z,40.90
2022-11-30T09:25:28.032Z,40.50
2022-11-30T09:26:19.492Z,37.00
2022-11-30T09:27:19.495Z,39.80
2022-11-30T09:28:19.445Z,41.30
2022-11-30T09:29:19.541Z,38.60
2022-11-30T09:30:19.468Z,37.30
2022-11-30T09:31:26.971Z,36.80
2022-11-30T09:32:29.150Z,38.30
2022-11-30T09:33:29.343Z,36.90
2022-11-30T09:34:19.393Z,40.90
2022-11-30T09:35:26.911Z,36.40
2022-11-30T09:36:26.891Z,37.50
2022-11-30T09:37:26.898Z,41.30
2022-11-30T09:38:28.083Z,38.30
2022-11-30T09:39:19.332Z,38.30
2022-11-30T09:40:19.303Z,37.40
2022-11-30T09:41:19.280Z,40.30
2022-11-30T09:42:19.298Z,36.90
2022-11-30T09:43:19.263Z,38.90
2022-11-30T09:44:19.265Z,39.30
2022-11-30T09:45:19.237Z,36.80
2022-11-30T09:46:19.299Z,38.50
2022-11-30T09:47:19.253Z,37.20
2022-11-30T09:48:19.268Z,39.20
2022-11-30T09:49:19.181Z,40.60
2022-11-30T09:50:19.289Z,37.40
2022-11-30T09:51:19.267Z,37.50
2022-11-30T09:52:19.147Z,39.70
2022-11-30T09:53:22.041Z,36.80
2022-11-30T09:54:20.106Z,38.00
2022-11-30T09:55:19.127Z,36.80
2022-11-30T09:56:19.176Z,35.80
2022-11-30T09:57:19.201Z,36.70
2022-11-30T09:58:19.202Z,36.20
2022-11-30T09:59:19.065Z,38.30
2022-11-30T10:00:19.097Z,36.60
2022-11-30T10:01:19.240Z,35.50
2022-11-30T10:02:19.196Z,40.30
2022-11-30T10:03:19.121Z,39.10
2022-11-30T10:04:19.153Z,35.50
2022-11-30T10:05:19.012Z,38.40
2022-11-30T10:06:18.997Z,37.70
2022-11-30T10:07:19.123Z,36.80
2022-11-30T10:08:19.043Z,40.60
2022-11-30T10:09:18.936Z,37.30
2022-11-30T10:10:34.625Z,39.80
2022-11-30T10:11:19.950Z,43.00
2022-11-30T10:12:18.907Z,37.10
2022-11-30T10:13:18.986Z,38.80
2022-11-30T10:14:18.892Z,37.30
2022-11-30T10:15:18.887Z,36.20
2022-11-30T10:16:19.072Z,36.50
2022-11-30T10:17:18.854Z,39.20
2022-11-30T10:18:18.833Z,34.30
2022-11-30T10:19:18.963Z,34.40
2022-11-30T10:20:18.877Z,37.90
2022-11-30T10:21:18.865Z,39.80
2022-11-30T10:22:18.961Z,36.20
2022-11-30T10:23:19.966Z,35.60
2022-11-30T10:24:18.961Z,35.90
2022-11-30T10:25:18.746Z,36.20
2022-11-30T10:26:18.756Z,38.30
2022-11-30T10:27:18.704Z,37.40
2022-11-30T10:28:45.538Z,38.70
2022-11-30T10:29:19.728Z,38.10
2022-11-30T10:30:18.659Z,34.50
2022-11-30T10:31:18.752Z,40.00
2022-11-30T10:32:18.736Z,37.90
2022-11-30T10:33:18.652Z,37.30
2022-11-30T10:34:18.654Z,37.90
2022-11-30T10:35:18.624Z,34.70
2022-11-30T10:36:18.578Z,33.10
2022-11-30T10:37:18.576Z,37.00
2022-11-30T10:38:18.597Z,37.10
2022-11-30T10:39:18.570Z,39.30
2022-11-30T10:40:18.565Z,37.20
2022-11-30T10:41:18.573Z,39.40
2022-11-30T10:42:18.597Z,39.10
2022-11-30T10:43:18.590Z,36.50
2022-11-30T10:44:18.509Z,35.40
2022-11-30T10:45:18.492Z,43.50
2022-11-30T10:46:31.555Z,38.60
2022-11-30T10:47:26.305Z,38.50
2022-11-30T10:48:18.435Z,39.90
2022-11-30T10:49:18.440Z,35.50
2022-11-30T10:50:18.435Z,45.20
2022-11-30T10:51:18.396Z,38.30
2022-11-30T10:52:18.424Z,37.20
2022-11-30T10:53:18.402Z,38.40
2022-11-30T10:54:18.368Z,36.60
2022-11-30T10:55:18.335Z,36.40
2022-11-30T10:56:18.350Z,35.80
2022-11-30T10:57:18.358Z,35.40
2022-11-30T10:58:18.366Z,31.90
2022-11-30T10:59:18.303Z,35.00
2022-11-30T11:00:18.340Z,37.80
2022-11-30T11:01:18.356Z,41.00
2022-11-30T11:02:18.302Z,36.70
2022-11-30T11:03:18.291Z,36.30
2022-11-30T11:04:18.269Z,35.80
2022-11-30T11:05:18.247Z,37.10
2022-11-30T11:06:18.264Z,37.60
2022-11-30T11:07:18.288Z,34.20
2022-11-30T11:08:18.425Z,38.10
2022-11-30T11:09:18.212Z,37.20
2022-11-30T11:10:18.172Z,35.30
2022-11-30T11:11:18.166Z,34.50
2022-11-30T11:12:18.175Z,36.50
2022-11-30T11:13:18.117Z,37.50
2022-11-30T11:14:18.172Z,34.70
2022-11-30T11:15:18.093Z,36.80
2022-11-30T11:16:18.189Z,36.90
2022-11-30T11:17:18.065Z,35.80
2022-11-30T11:18:18.102Z,35.60
2022-11-30T11:19:18.079Z,34.80
2022-11-30T11:20:18.067Z,35.50
2022-11-30T11:21:18.069Z,35.70
2022-11-30T11:22:18.034Z,37.90
2022-11-30T11:23:18.036Z,33.40
2022-11-30T11:24:18.027Z,32.70
2022-11-30T11:25:18.023Z,32.50
2022-11-30T11:26:18.015Z,39.00
2022-11-30T11:27:17.979Z,35.90
2022-11-30T11:28:17.946Z,34.60
2022-11-30T11:29:17.928Z,37.60
2022-11-30T11:30:17.969Z,34.20
2022-11-30T11:31:18.085Z,33.70
2022-11-30T11:32:17.894Z,34.20
2022-11-30T11:33:17.884Z,35.90
2022-11-30T11:34:17.853Z,34.80
2022-11-30T11:35:17.864Z,34.40
2022-11-30T11:36:17.873Z,35.10
2022-11-30T11:37:17.816Z,35.00
2022-11-30T11:38:17.825Z,35.70
2022-11-30T11:39:17.799Z,36.00
2022-11-30T11:40:17.828Z,36.20
2022-11-30T11:41:17.788Z,38.40
2022-11-30T11:42:21.987Z,35.60
2022-11-30T11:43:17.785Z,35.40
2022-11-30T11:44:17.738Z,33.50
2022-11-30T11:45:17.743Z,37.80
2022-11-30T11:46:17.780Z,33.00
2022-11-30T11:47:17.750Z,35.90
2022-11-30T11:48:17.678Z,32.20
2022-11-30T11:49:17.825Z,37.00
2022-11-30T11:50:23.567Z,33.50
2022-11-30T11:51:18.646Z,38.00
2022-11-30T11:52:17.658Z,36.50
2022-11-30T11:53:17.699Z,36.50
2022-11-30T11:54:17.687Z,36.30
2022-11-30T11:55:17.589Z,34.80
2022-11-30T11:56:17.616Z,35.00
2022-11-30T11:57:17.624Z,37.90
2022-11-30T11:58:17.627Z,35.90
2022-11-30T11:59:17.678Z,35.40
2022-11-30T12:00:17.895Z,33.10
2022-11-30T12:01:39.342Z,36.70
2022-11-30T12:02:18.619Z,36.00
2022-11-30T12:03:17.556Z,35.60
2022-11-30T12:04:17.592Z,33.80
2022-11-30T12:05:17.511Z,35.70
2022-11-30T12:06:17.487Z,33.60
2022-11-30T12:07:18.365Z,35.50
2022-11-30T12:08:17.472Z,32.20
2022-11-30T12:09:17.431Z,34.20
2022-11-30T12:10:50.167Z,34.90
2022-11-30T12:11:18.416Z,36.10
2022-11-30T12:12:17.408Z,32.50
2022-11-30T12:13:17.410Z,35.00
2022-11-30T12:14:17.426Z,33.00
2022-11-30T12:15:17.353Z,36.00
2022-11-30T12:16:17.437Z,35.40
2022-11-30T12:17:17.336Z,35.70
2022-11-30T12:18:23.621Z,35.40
2022-11-30T12:19:18.318Z,35.30
2022-11-30T12:20:17.362Z,36.40
2022-11-30T12:21:17.295Z,37.00
2022-11-30T12:22:17.282Z,35.20
2022-11-30T12:23:17.289Z,36.50
2022-11-30T12:24:17.246Z,36.40
2022-11-30T12:25:17.250Z,37.50
2022-11-30T12:26:17.322Z,39.00
2022-11-30T12:27:17.212Z,34.10
2022-11-30T12:28:17.212Z,35.00
2022-11-30T12:29:17.179Z,36.40
2022-11-30T12:30:17.183Z,38.00
2022-11-30T12:31:17.266Z,35.60
2022-11-30T12:32:17.157Z,36.90
2022-11-30T12:33:17.134Z,34.90
2022-11-30T12:34:17.159Z,33.10
2022-11-30T12:35:17.098Z,33.30
2022-11-30T12:36:17.131Z,34.10
2022-11-30T12:37:17.112Z,33.90
2022-11-30T12:38:17.128Z,32.20
2022-11-30T12:39:17.081Z,35.30
2022-11-30T12:40:17.059Z,34.00
2022-11-30T12:41:17.092Z,33.00
2022-11-30T12:42:17.054Z,37.20
2022-11-30T12:43:17.061Z,31.70
2022-11-30T12:44:17.021Z,32.40
2022-11-30T12:45:16.988Z,33.30
2022-11-30T12:46:17.037Z,30.30
2022-11-30T12:47:16.967Z,36.60
2022-11-30T12:48:17.053Z,33.20
2022-11-30T12:49:16.990Z,34.40
2022-11-30T12:50:16.946Z,33.80
2022-11-30T12:51:16.933Z,32.00
2022-11-30T12:52:16.951Z,31.50
2022-11-30T12:53:16.895Z,36.30
2022-11-30T12:54:16.882Z,31.40
2022-11-30T12:55:16.905Z,34.60
2022-11-30T12:56:16.881Z,32.10
2022-11-30T12:57:16.870Z,33.10
2022-11-30T12:58:16.846Z,33.10
2022-11-30T12:59:16.851Z,32.90
2022-11-30T13:00:16.826Z,33.00
2022-11-30T13:01:16.818Z,31.70
2022-11-30T13:02:16.866Z,36.40
2022-11-30T13:03:16.760Z,32.20
2022-11-30T13:04:16.762Z,31.30
2022-11-30T13:05:16.746Z,34.40
2022-11-30T13:06:16.714Z,32.40
2022-11-30T13:07:16.718Z,34.20
2022-11-30T13:08:16.774Z,33.10
2022-11-30T13:09:16.699Z,31.50
2022-11-30T13:10:16.755Z,33.80
2022-11-30T13:11:16.666Z,29.10
2022-11-30T13:12:16.664Z,33.90
2022-11-30T13:13:16.679Z,32.20
2022-11-30T13:14:16.661Z,28.40
2022-11-30T13:15:16.709Z,30.70
2022-11-30T13:16:16.671Z,28.60
2022-11-30T13:17:16.647Z,31.50
2022-11-30T13:18:16.600Z,30.90
2022-11-30T13:19:16.574Z,29.70
2022-11-30T13:20:16.573Z,30.10
2022-11-30T13:21:16.626Z,29.60
2022-11-30T13:22:16.528Z,29.50
2022-11-30T13:23:16.524Z,29.00
2022-11-30T13:24:16.516Z,28.40
2022-11-30T13:25:16.485Z,28.20
2022-11-30T13:26:16.491Z,26.60
2022-11-30T13:27:16.510Z,26.80
2022-11-30T13:28:16.460Z,25.20
2022-11-30T13:29:16.578Z,27.60
2022-11-30T13:30:16.466Z,26.80
2022-11-30T13:31:16.471Z,24.30
2022-11-30T13:32:55.322Z,26.90
2022-11-30T13:33:17.435Z,24.20
2022-11-30T13:34:16.435Z,23.80
2022-11-30T13:35:16.411Z,28.20
2022-11-30T13:36:16.366Z,23.30
2022-11-30T13:37:16.347Z,23.60
2022-11-30T13:39:17.307Z,23.70
2022-11-30T13:40:16.302Z,22.70
2022-11-30T13:41:16.304Z,23.10
2022-11-30T13:42:16.310Z,22.00
2022-11-30T13:43:16.295Z,23.00
2022-11-30T13:44:16.265Z,23.50
2022-11-30T13:45:16.244Z,21.50
2022-11-30T13:46:16.390Z,20.90
2022-11-30T13:47:16.220Z,22.20
2022-11-30T13:48:16.226Z,21.30
2022-11-30T13:49:16.234Z,20.80
2022-11-30T13:50:16.182Z,19.30
2022-11-30T13:51:16.173Z,19.90
2022-11-30T13:52:24.280Z,19.30
2022-11-30T13:53:17.153Z,20.00
2022-11-30T13:54:27.158Z,20.70
2022-11-30T13:55:17.133Z,22.10
2022-11-30T13:56:16.093Z,19.70
2022-11-30T13:57:16.083Z,19.70
2022-11-30T13:58:16.078Z,21.60
2022-11-30T13:59:16.097Z,20.20
2022-11-30T14:00:16.095Z,21.10
2022-11-30T14:01:16.071Z,21.70
2022-11-30T14:02:16.065Z,19.90
2022-11-30T14:03:16.037Z,18.60
2022-11-30T14:04:16.004Z,19.80
2022-11-30T14:05:16.029Z,17.00
2022-11-30T14:06:15.981Z,18.00
2022-11-30T14:07:15.997Z,19.80
2022-11-30T14:08:15.965Z,19.20
2022-11-30T14:09:15.948Z,18.90
2022-11-30T14:10:15.937Z,18.00
2022-11-30T14:11:15.930Z,18.20
2022-11-30T14:12:15.899Z,20.10
2022-11-30T14:13:15.907Z,17.90
2022-11-30T14:14:15.889Z,19.00
2022-11-30T14:15:15.878Z,20.40
2022-11-30T14:16:15.933Z,18.00
2022-11-30T14:17:15.858Z,18.20
2022-11-30T14:18:15.829Z,17.80
2022-11-30T14:19:15.841Z,17.40
2022-11-30T14:20:15.821Z,18.20